Time;durP1;ratioP1;P1;durP2;ratioP2;P2;SDS_P1;SDS_P2;PMS_P1;PMS_P2;Temp;Humidity;BMP_temperature;BMP_pressure;BME280_temperature;BME280_humidity;BME280_pressure;Samples;Min_cycle;Max_cycle;Signal;HPM_P1;HPM_P2
2024/01/21 00:01:08;;;;;;;14.77;8.10;;;;;;;;;;5050315;28;20123;-67
2024/01/21 00:03:34;;;;;;;15.77;7.70;;;;;;;;;;5051388;28;20714;-67
2024/01/21 00:05:59;;;;;;;18.57;9.07;;;;;;;;;;5051009;28;20052;-67
2024/01/21 00:08:25;;;;;;;13.47;7.80;;;;;;;;;;5051339;28;20040;-67
2024/01/21 00:10:51;;;;;;;13.27;7.90;;;;;;;;;;5050263;28;20044;-67
2024/01/21 00:13:17;;;;;;;11.67;6.53;;;;;;;;;;5050935;28;20482;-67
2024/01/21 00:15:43;;;;;;;11.07;6.60;;;;;;;;;;5052075;28;20114;-67
2024/01/21 00:18:09;;;;;;;13.67;6.73;;;;;;;;;;5051217;28;20040;-67
2024/01/21 00:20:35;;;;;;;13.43;7.47;;;;;;;;;;5050781;28;20159;-67
2024/01/21 00:23:01;;;;;;;13.10;6.80;;;;;;;;;;5051070;28;20303;-67
2024/01/21 00:25:27;;;;;;;14.13;7.50;;;;;;;;;;5051101;28;20041;-67
2024/01/21 00:27:53;;;;;;;12.90;7.10;;;;;;;;;;5051027;28;20082;-67
2024/01/21 00:30:19;;;;;;;10.80;6.57;;;;;;;;;;5049814;28;20299;-67
2024/01/21 00:32:45;;;;;;;15.17;8.00;;;;;;;;;;5050460;28;20354;-67
2024/01/21 00:35:11;;;;;;;11.87;6.97;;;;;;;;;;5051196;28;20045;-67
2024/01/21 00:37:38;;;;;;;15.93;7.77;;;;;;;;;;5038651;28;20104;-67
2024/01/21 00:40:05;;;;;;;15.60;7.53;;;;;;;;;;5047202;28;20283;-67
2024/01/21 00:42:31;;;;;;;14.10;8.10;;;;;;;;;;5049965;28;20782;-67
2024/01/21 00:44:57;;;;;;;13.53;7.83;;;;;;;;;;5050261;28;20330;-66
2024/01/21 00:47:23;;;;;;;11.97;7.37;;;;;;;;;;5048704;28;20041;-66
2024/01/21 00:49:49;;;;;;;13.07;8.00;;;;;;;;;;5049411;28;20784;-66
2024/01/21 00:52:15;;;;;;;14.70;8.33;;;;;;;;;;5048981;28;20742;-66
2024/01/21 00:54:41;;;;;;;14.90;7.30;;;;;;;;;;5048041;28;20131;-66
2024/01/21 00:57:07;;;;;;;14.20;7.17;;;;;;;;;;5049570;28;20491;-66
2024/01/21 00:59:33;;;;;;;14.00;6.93;;;;;;;;;;5048147;28;20044;-66
2024/01/21 01:01:59;;;;;;;13.77;8.17;;;;;;;;;;5049369;28;20145;-66
2024/01/21 01:04:25;;;;;;;12.53;7.80;;;;;;;;;;5050470;28;20075;-66
2024/01/21 01:06:52;;;;;;;13.77;7.30;;;;;;;;;;5049760;28;20041;-66
2024/01/21 01:09:18;;;;;;;13.30;7.57;;;;;;;;;;5049505;28;20045;-66
2024/01/21 01:11:44;;;;;;;12.87;7.83;;;;;;;;;;5050293;28;20447;-66
2024/01/21 01:14:10;;;;;;;16.57;8.53;;;;;;;;;;5049827;28;20514;-66
2024/01/21 01:16:38;;;;;;;12.37;7.07;;;;;;;;;;5050161;28;20052;-66
2024/01/21 01:19:04;;;;;;;13.13;6.73;;;;;;;;;;5049294;28;20423;-66
2024/01/21 01:21:31;;;;;;;13.77;8.43;;;;;;;;;;5049874;28;20688;-66
2024/01/21 01:23:57;;;;;;;15.00;7.40;;;;;;;;;;5049807;28;20314;-66
2024/01/21 01:26:23;;;;;;;12.87;7.07;;;;;;;;;;5048542;28;20482;-66
2024/01/21 01:28:50;;;;;;;13.17;6.30;;;;;;;;;;5048774;28;20290;-66
2024/01/21 01:31:19;;;;;;;10.80;7.23;;;;;;;;;;5049769;28;20279;-66
2024/01/21 01:33:46;;;;;;;15.60;7.80;;;;;;;;;;5049324;28;20387;-66
2024/01/21 01:36:12;;;;;;;11.87;6.87;;;;;;;;;;5049435;28;20366;-66
2024/01/21 01:38:38;;;;;;;11.93;6.07;;;;;;;;;;5049079;28;21209;-66
2024/01/21 01:41:04;;;;;;;16.30;7.93;;;;;;;;;;5049254;28;20289;-65
2024/01/21 01:43:30;;;;;;;12.20;6.77;;;;;;;;;;5049359;28;20377;-66
2024/01/21 01:46:00;;;;;;;12.83;6.37;;;;;;;;;;5049207;28;20323;-65
2024/01/21 01:48:26;;;;;;;10.37;6.03;;;;;;;;;;5048946;28;20370;-65
2024/01/21 01:50:52;;;;;;;10.20;4.93;;;;;;;;;;5048246;28;20449;-65
2024/01/21 01:53:19;;;;;;;15.73;6.77;;;;;;;;;;5049193;28;20348;-65
2024/01/21 01:55:45;;;;;;;12.10;6.80;;;;;;;;;;5048505;28;20304;-65
2024/01/21 01:58:12;;;;;;;9.33;5.57;;;;;;;;;;5049208;28;20287;-65
2024/01/21 02:00:38;;;;;;;9.67;5.43;;;;;;;;;;5049325;28;20279;-65
2024/01/21 02:03:04;;;;;;;10.67;5.43;;;;;;;;;;5049049;28;20650;-65
2024/01/21 02:05:30;;;;;;;11.47;5.70;;;;;;;;;;5049290;28;20124;-65
2024/01/21 02:07:56;;;;;;;10.77;5.47;;;;;;;;;;5048421;28;20467;-65
2024/01/21 02:10:22;;;;;;;10.17;5.73;;;;;;;;;;5049291;28;20049;-65
2024/01/21 02:12:48;;;;;;;9.63;5.67;;;;;;;;;;5048701;28;20111;-65
2024/01/21 02:15:14;;;;;;;8.30;4.20;;;;;;;;;;5048698;28;20048;-65
2024/01/21 02:17:40;;;;;;;10.30;5.60;;;;;;;;;;5048780;28;20276;-65
2024/01/21 02:20:07;;;;;;;10.60;4.33;;;;;;;;;;5047986;28;20053;-65
2024/01/21 02:22:35;;;;;;;9.13;4.47;;;;;;;;;;5047532;28;20333;-65
2024/01/21 02:25:00;;;;;;;11.30;4.50;;;;;;;;;;5047584;28;20826;-65
2024/01/21 02:27:26;;;;;;;8.33;4.53;;;;;;;;;;5047435;28;20331;-65
2024/01/21 02:29:52;;;;;;;8.90;4.87;;;;;;;;;;5048585;28;20119;-65
2024/01/21 02:32:18;;;;;;;11.57;4.87;;;;;;;;;;5047291;28;20041;-65
2024/01/21 02:34:44;;;;;;;6.80;3.90;;;;;;;;;;5048707;28;20185;-65
2024/01/21 02:37:10;;;;;;;6.47;3.57;;;;;;;;;;5047286;28;20060;-65
2024/01/21 02:39:36;;;;;;;6.93;3.97;;;;;;;;;;5046872;28;20127;-65
2024/01/21 02:42:02;;;;;;;5.20;2.90;;;;;;;;;;5048458;28;20466;-65
2024/01/21 02:44:28;;;;;;;7.37;4.20;;;;;;;;;;5048169;28;20045;-65
2024/01/21 02:46:54;;;;;;;7.67;3.80;;;;;;;;;;5048379;28;20041;-65
2024/01/21 02:49:23;;;;;;;10.20;4.67;;;;;;;;;;5047887;28;20492;-64
2024/01/21 02:51:49;;;;;;;8.17;3.73;;;;;;;;;;5048243;28;20096;-64
2024/01/21 02:54:15;;;;;;;7.47;3.60;;;;;;;;;;5048147;28;20303;-65
2024/01/21 02:56:41;;;;;;;8.33;3.73;;;;;;;;;;5048144;28;20045;-65
2024/01/21 02:59:07;;;;;;;8.37;3.63;;;;;;;;;;5048225;28;20291;-65
2024/01/21 03:01:34;;;;;;;7.30;3.20;;;;;;;;;;5047656;28;20075;-65
2024/01/21 03:04:00;;;;;;;8.23;4.13;;;;;;;;;;5048274;28;20141;-65
2024/01/21 03:06:26;;;;;;;7.10;3.70;;;;;;;;;;5048052;28;20044;-65
2024/01/21 03:08:52;;;;;;;7.10;3.60;;;;;;;;;;5047176;28;20045;-65
2024/01/21 03:11:18;;;;;;;7.90;3.20;;;;;;;;;;5047840;28;20341;-65
2024/01/21 03:13:44;;;;;;;5.60;3.00;;;;;;;;;;5048164;28;20045;-65
2024/01/21 03:16:11;;;;;;;6.27;3.00;;;;;;;;;;5047261;28;20041;-64
2024/01/21 03:18:38;;;;;;;7.77;3.37;;;;;;;;;;5047549;28;20499;-65
2024/01/21 03:21:07;;;;;;;5.90;3.00;;;;;;;;;;5048295;28;20056;-64
2024/01/21 03:23:33;;;;;;;6.97;3.30;;;;;;;;;;5051708;28;20558;-64
2024/01/21 03:25:59;;;;;;;6.50;3.00;;;;;;;;;;5052141;28;20045;-64
2024/01/21 03:28:25;;;;;;;7.17;3.77;;;;;;;;;;5052207;28;20329;-64
2024/01/21 03:30:51;;;;;;;8.90;3.63;;;;;;;;;;5051853;28;20124;-64
2024/01/21 03:33:17;;;;;;;7.20;3.07;;;;;;;;;;5051372;28;20195;-64
2024/01/21 03:35:43;;;;;;;6.77;2.93;;;;;;;;;;5052087;28;20052;-64
2024/01/21 03:38:09;;;;;;;6.33;2.63;;;;;;;;;;5051989;28;20037;-64
2024/01/21 03:40:35;;;;;;;5.50;3.30;;;;;;;;;;5050916;28;20708;-64
2024/01/21 03:43:01;;;;;;;6.40;2.97;;;;;;;;;;5051106;28;20044;-64
2024/01/21 03:45:28;;;;;;;6.40;3.07;;;;;;;;;;5051745;28;20477;-64
2024/01/21 03:47:53;;;;;;;5.90;2.57;;;;;;;;;;5051588;28;20530;-64
2024/01/21 03:50:20;;;;;;;6.37;2.97;;;;;;;;;;5051647;28;20048;-64
2024/01/21 03:52:49;;;;;;;6.63;2.30;;;;;;;;;;5051319;28;20055;-64
2024/01/21 03:55:15;;;;;;;5.23;2.63;;;;;;;;;;5051193;28;20422;-64
2024/01/21 03:57:41;;;;;;;6.53;3.23;;;;;;;;;;5051264;28;20044;-65
2024/01/21 04:00:08;;;;;;;6.67;2.90;;;;;;;;;;5051587;28;20127;-64
2024/01/21 04:02:35;;;;;;;9.03;3.10;;;;;;;;;;5051546;28;20538;-64
2024/01/21 04:05:01;;;;;;;5.47;2.87;;;;;;;;;;5051488;28;20048;-64
2024/01/21 04:07:27;;;;;;;6.83;3.53;;;;;;;;;;5049981;28;20041;-64
2024/01/21 04:09:53;;;;;;;7.07;3.30;;;;;;;;;;5051182;28;20056;-64
2024/01/21 04:12:19;;;;;;;5.03;2.73;;;;;;;;;;5051396;28;20041;-64
2024/01/21 04:14:45;;;;;;;7.67;3.20;;;;;;;;;;5050815;28;20503;-64
2024/01/21 04:17:11;;;;;;;7.53;3.10;;;;;;;;;;5051260;28;20094;-64
2024/01/21 04:19:37;;;;;;;7.83;3.00;;;;;;;;;;5051018;28;20097;-64
2024/01/21 04:22:03;;;;;;;7.57;2.83;;;;;;;;;;5049992;28;20082;-65
2024/01/21 04:24:30;;;;;;;4.00;2.20;;;;;;;;;;5049432;28;20135;-65
2024/01/21 04:26:56;;;;;;;7.00;2.63;;;;;;;;;;5050663;28;20495;-64
2024/01/21 04:29:22;;;;;;;5.80;2.63;;;;;;;;;;5050224;28;20033;-64
2024/01/21 04:31:48;;;;;;;5.47;2.10;;;;;;;;;;5050530;28;20037;-64
2024/01/21 04:34:14;;;;;;;5.27;2.70;;;;;;;;;;5049169;28;20049;-64
2024/01/21 04:36:40;;;;;;;6.23;2.63;;;;;;;;;;5050465;28;20284;-64
2024/01/21 04:39:06;;;;;;;5.63;2.50;;;;;;;;;;5049688;28;20503;-64
2024/01/21 04:41:32;;;;;;;3.77;2.23;;;;;;;;;;5050728;28;20045;-64
2024/01/21 04:43:58;;;;;;;7.77;2.90;;;;;;;;;;5050487;28;20044;-64
2024/01/21 04:46:24;;;;;;;4.87;2.63;;;;;;;;;;5050375;28;20056;-64
2024/01/21 04:48:50;;;;;;;5.13;2.10;;;;;;;;;;5050296;28;20092;-64
2024/01/21 04:51:17;;;;;;;4.83;2.53;;;;;;;;;;5050734;28;20045;-64
2024/01/21 04:53:43;;;;;;;4.47;2.30;;;;;;;;;;5050332;28;20037;-64
2024/01/21 04:56:15;;;;;;;5.70;2.63;;;;;;;;;;5050461;28;20547;-64
2024/01/21 04:58:41;;;;;;;5.03;2.57;;;;;;;;;;5050172;28;20048;-64
2024/01/21 05:01:07;;;;;;;7.40;2.90;;;;;;;;;;5050676;28;20048;-64
2024/01/21 05:03:33;;;;;;;5.70;2.50;;;;;;;;;;5050593;28;20083;-64
2024/01/21 05:05:59;;;;;;;4.73;2.40;;;;;;;;;;5050160;28;20045;-64
2024/01/21 05:08:25;;;;;;;5.47;3.07;;;;;;;;;;5048699;28;20033;-64
2024/01/21 05:10:51;;;;;;;5.33;2.70;;;;;;;;;;5050096;28;20084;-64
2024/01/21 05:13:18;;;;;;;5.37;2.90;;;;;;;;;;5050193;28;20041;-64
2024/01/21 05:15:44;;;;;;;4.20;2.57;;;;;;;;;;5048842;28;20048;-64
2024/01/21 05:18:10;;;;;;;6.20;2.60;;;;;;;;;;5049626;28;20045;-64
2024/01/21 05:20:36;;;;;;;6.43;2.60;;;;;;;;;;5049845;28;20107;-64
2024/01/21 05:23:03;;;;;;;6.80;3.30;;;;;;;;;;5050109;28;20418;-64
2024/01/21 05:25:29;;;;;;;6.13;2.80;;;;;;;;;;5049792;28;20048;-64
2024/01/21 05:27:56;;;;;;;6.40;3.00;;;;;;;;;;5049282;28;20287;-64
2024/01/21 05:30:22;;;;;;;6.93;4.03;;;;;;;;;;5049728;28;20047;-64
2024/01/21 05:32:51;;;;;;;7.13;2.90;;;;;;;;;;5049675;28;20045;-64
2024/01/21 05:35:18;;;;;;;6.73;3.20;;;;;;;;;;5049746;28;20049;-65
2024/01/21 05:37:44;;;;;;;5.53;2.83;;;;;;;;;;5048425;28;20048;-64
2024/01/21 05:40:10;;;;;;;9.27;3.73;;;;;;;;;;5048538;28;20093;-64
2024/01/21 05:42:36;;;;;;;6.63;3.20;;;;;;;;;;5049349;28;20049;-64
2024/01/21 05:45:02;;;;;;;7.83;3.77;;;;;;;;;;5048847;28;20053;-64
2024/01/21 05:47:28;;;;;;;6.97;3.10;;;;;;;;;;5049543;28;20143;-64
2024/01/21 05:49:54;;;;;;;6.80;3.97;;;;;;;;;;5049032;28;20156;-64
2024/01/21 05:52:20;;;;;;;9.17;4.33;;;;;;;;;;5049005;28;20523;-65
2024/01/21 05:54:46;;;;;;;7.67;3.70;;;;;;;;;;5049477;28;20056;-65
2024/01/21 05:57:12;;;;;;;7.17;3.97;;;;;;;;;;5049067;28;20045;-64
2024/01/21 05:59:38;;;;;;;8.37;4.07;;;;;;;;;;5046978;28;20176;-64
2024/01/21 06:02:07;;;;;;;6.43;3.33;;;;;;;;;;5048315;28;20299;-64
2024/01/21 06:04:33;;;;;;;6.70;3.90;;;;;;;;;;5048183;28;20128;-65
2024/01/21 06:06:59;;;;;;;5.93;3.90;;;;;;;;;;5049133;28;20056;-65
2024/01/21 06:09:25;;;;;;;6.73;4.07;;;;;;;;;;5048456;28;20487;-65
2024/01/21 06:11:51;;;;;;;7.37;3.57;;;;;;;;;;5049251;28;20102;-65
2024/01/21 06:14:17;;;;;;;8.47;4.37;;;;;;;;;;5049200;28;20048;-65
2024/01/21 06:16:43;;;;;;;8.67;4.87;;;;;;;;;;5047686;28;20457;-64
2024/01/21 06:19:09;;;;;;;8.77;4.23;;;;;;;;;;5047681;28;20041;-65
2024/01/21 06:21:42;;;;;;;7.43;3.93;;;;;;;;;;5046996;28;20426;-65
2024/01/21 06:24:08;;;;;;;8.10;4.70;;;;;;;;;;5047081;28;20152;-65
2024/01/21 06:26:37;;;;;;;7.07;4.33;;;;;;;;;;5049059;28;20131;-64
2024/01/21 06:29:03;;;;;;;7.53;4.13;;;;;;;;;;5048671;28;20134;-65
2024/01/21 06:31:29;;;;;;;7.47;4.17;;;;;;;;;;5048538;28;20182;-65
2024/01/21 06:33:55;;;;;;;9.10;4.70;;;;;;;;;;5046483;28;20396;-65
2024/01/21 06:36:25;;;;;;;7.27;4.20;;;;;;;;;;5048424;28;20113;-64
2024/01/21 06:38:51;;;;;;;7.53;4.60;;;;;;;;;;5048505;28;20044;-64
2024/01/21 06:41:17;;;;;;;8.90;4.47;;;;;;;;;;5048679;28;20068;-64
2024/01/21 06:43:43;;;;;;;8.20;4.87;;;;;;;;;;5046882;28;20510;-64
2024/01/21 06:46:09;;;;;;;7.67;4.37;;;;;;;;;;5048353;28;20056;-65
2024/01/21 06:48:35;;;;;;;10.93;5.07;;;;;;;;;;5046698;28;20479;-64
2024/01/21 06:51:09;;;;;;;7.90;4.17;;;;;;;;;;5048412;28;20323;-64
2024/01/21 06:53:35;;;;;;;;;;;;;;;;;;5048408;28;20044;-64
2024/01/21 06:56:06;;;;;;;10.07;4.97;;;;;;;;;;5047857;28;19966;-64
2024/01/21 06:58:32;;;;;;;7.73;4.50;;;;;;;;;;5046584;28;20040;-64
2024/01/21 07:00:59;;;;;;;9.30;4.37;;;;;;;;;;5047617;28;20040;-64
2024/01/21 07:03:25;;;;;;;8.30;4.40;;;;;;;;;;5048372;28;20127;-64
2024/01/21 07:05:51;;;;;;;7.27;4.37;;;;;;;;;;5047648;28;20075;-64
2024/01/21 07:08:18;;;;;;;9.33;4.93;;;;;;;;;;5048220;28;20406;-64
2024/01/21 07:10:44;;;;;;;9.17;4.97;;;;;;;;;;5048257;28;20136;-64
2024/01/21 07:13:10;;;;;;;7.10;4.17;;;;;;;;;;5048204;28;20049;-64
2024/01/21 07:15:36;;;;;;;7.83;5.07;;;;;;;;;;5047933;28;20052;-64
2024/01/21 07:18:02;;;;;;;10.90;4.80;;;;;;;;;;5047682;28;20049;-64
2024/01/21 07:20:28;;;;;;;10.73;4.13;;;;;;;;;;5048121;28;20048;-64
2024/01/21 07:22:55;;;;;;;7.30;4.27;;;;;;;;;;5047777;28;20041;-64
2024/01/21 07:25:22;;;;;;;7.17;3.90;;;;;;;;;;5047976;28;20048;-64
2024/01/21 07:27:48;;;;;;;7.93;4.53;;;;;;;;;;5047564;28;20091;-64
2024/01/21 07:30:14;;;;;;;9.13;4.30;;;;;;;;;;5047670;28;20107;-64
2024/01/21 07:32:41;;;;;;;8.50;4.50;;;;;;;;;;5047938;28;20045;-64
2024/01/21 07:35:10;;;;;;;9.47;5.23;;;;;;;;;;5047743;28;20044;-64
2024/01/21 07:37:37;;;;;;;7.43;4.73;;;;;;;;;;5046777;28;20081;-64
2024/01/21 07:40:04;;;;;;;8.20;3.67;;;;;;;;;;5047681;28;20056;-64
2024/01/21 07:42:30;;;;;;;7.67;4.23;;;;;;;;;;5047581;28;20053;-64
2024/01/21 07:44:56;;;;;;;7.73;4.53;;;;;;;;;;5046079;28;20130;-64
2024/01/21 07:47:22;;;;;;;8.90;5.47;;;;;;;;;;5047626;28;20091;-64
2024/01/21 07:49:48;;;;;;;8.23;4.97;;;;;;;;;;5047593;28;20490;-64
2024/01/21 07:52:16;;;;;;;8.53;4.00;;;;;;;;;;5047393;28;20053;-64
2024/01/21 07:54:42;;;;;;;7.40;4.30;;;;;;;;;;5046825;28;20049;-64
2024/01/21 07:57:08;;;;;;;7.37;4.37;;;;;;;;;;5047605;28;20037;-64
2024/01/21 07:59:34;;;;;;;9.83;5.20;;;;;;;;;;5047503;28;20097;-64
2024/01/21 08:02:00;;;;;;;7.37;4.23;;;;;;;;;;5047349;28;20045;-64
2024/01/21 08:04:26;;;;;;;10.90;4.93;;;;;;;;;;5047218;28;20037;-64
2024/01/21 08:06:52;;;;;;;9.83;4.93;;;;;;;;;;5047333;28;20049;-64
2024/01/21 08:09:19;;;;;;;8.93;4.83;;;;;;;;;;5050245;28;20102;-64
2024/01/21 08:11:45;;;;;;;7.00;4.17;;;;;;;;;;5051453;28;20045;-64
2024/01/21 08:14:11;;;;;;;9.27;4.67;;;;;;;;;;5050927;28;20051;-64
2024/01/21 08:16:37;;;;;;;9.03;4.67;;;;;;;;;;5050516;28;20103;-64
2024/01/21 08:19:03;;;;;;;9.30;5.43;;;;;;;;;;5050902;28;20044;-64
2024/01/21 08:21:30;;;;;;;6.73;4.77;;;;;;;;;;5050022;28;20053;-64
2024/01/21 08:23:56;;;;;;;8.43;4.57;;;;;;;;;;5051105;28;20102;-64
2024/01/21 08:26:22;;;;;;;8.67;4.40;;;;;;;;;;5050199;28;20118;-64
2024/01/21 08:28:48;;;;;;;8.60;4.90;;;;;;;;;;5050510;28;20052;-64
2024/01/21 08:31:15;;;;;;;10.70;4.93;;;;;;;;;;5049621;28;20041;-63
2024/01/21 08:33:41;;;;;;;11.70;5.77;;;;;;;;;;5049644;28;20052;-64
2024/01/21 08:36:08;;;;;;;7.70;5.07;;;;;;;;;;5050728;28;20523;-64
2024/01/21 08:38:34;;;;;;;8.50;4.80;;;;;;;;;;5050819;28;20041;-64
2024/01/21 08:41:00;;;;;;;8.37;4.47;;;;;;;;;;5050470;28;20056;-63
2024/01/21 08:43:26;;;;;;;9.07;4.60;;;;;;;;;;5049032;28;20072;-63
2024/01/21 08:45:52;;;;;;;9.07;5.40;;;;;;;;;;5049161;28;20052;-63
2024/01/21 08:48:18;;;;;;;10.20;5.30;;;;;;;;;;5049090;28;20045;-63
2024/01/21 08:50:44;;;;;;;13.00;4.50;;;;;;;;;;5050319;28;20099;-63
2024/01/21 08:53:10;;;;;;;7.97;5.00;;;;;;;;;;5049854;28;20049;-63
2024/01/21 08:55:36;;;;;;;7.43;4.27;;;;;;;;;;5050747;28;20041;-63
2024/01/21 08:58:02;;;;;;;10.87;4.83;;;;;;;;;;5049613;28;20087;-63
2024/01/21 09:00:28;;;;;;;8.60;5.13;;;;;;;;;;5050765;28;20410;-64
2024/01/21 09:02:54;;;;;;;8.67;4.70;;;;;;;;;;5042144;28;20104;-64
2024/01/21 09:05:20;;;;;;;7.50;4.90;;;;;;;;;;5035164;28;20044;-63
2024/01/21 09:07:46;;;;;;;8.00;4.30;;;;;;;;;;5049702;28;20040;-63
2024/01/21 09:10:13;;;;;;;10.43;5.50;;;;;;;;;;5050463;28;20045;-63
2024/01/21 09:12:39;;;;;;;10.10;5.00;;;;;;;;;;5048946;28;20045;-63
2024/01/21 09:15:05;;;;;;;12.37;7.10;;;;;;;;;;5050166;28;20056;-63
2024/01/21 09:17:32;;;;;;;9.93;6.03;;;;;;;;;;5048476;28;20080;-64
2024/01/21 09:19:58;;;;;;;7.90;5.00;;;;;;;;;;5049616;28;20570;-64
2024/01/21 09:22:24;;;;;;;7.80;4.13;;;;;;;;;;5050269;28;20055;-64
2024/01/21 09:24:50;;;;;;;11.07;5.50;;;;;;;;;;5049803;28;20037;-63
2024/01/21 09:27:16;;;;;;;10.67;5.77;;;;;;;;;;5049608;28;20423;-63
2024/01/21 09:29:43;;;;;;;11.90;5.90;;;;;;;;;;5048520;28;20045;-64
2024/01/21 09:32:11;;;;;;;8.20;5.20;;;;;;;;;;5047527;28;20461;-64
2024/01/21 09:34:39;;;;;;;9.83;5.83;;;;;;;;;;5050457;28;20477;-64
2024/01/21 09:37:05;;;;;;;9.57;5.30;;;;;;;;;;5049597;28;20170;-64
2024/01/21 09:39:31;;;;;;;7.90;5.10;;;;;;;;;;5048353;28;20052;-64
2024/01/21 09:41:58;;;;;;;8.70;5.60;;;;;;;;;;5048640;28;20123;-64
2024/01/21 09:44:28;;;;;;;12.23;6.50;;;;;;;;;;5048250;28;20092;-63
2024/01/21 09:46:55;;;;;;;10.83;6.07;;;;;;;;;;5049269;28;20076;-64
2024/01/21 09:49:21;;;;;;;8.37;4.70;;;;;;;;;;5049604;28;20045;-63
2024/01/21 09:51:48;;;;;;;8.77;5.10;;;;;;;;;;5048645;28;20044;-63
2024/01/21 09:54:14;;;;;;;7.33;4.83;;;;;;;;;;5049257;28;20499;-64
2024/01/21 09:56:41;;;;;;;9.37;5.00;;;;;;;;;;5048206;28;20123;-64
2024/01/21 09:59:09;;;;;;;9.50;6.03;;;;;;;;;;5049285;28;20060;-64
2024/01/21 10:01:36;;;;;;;9.17;5.53;;;;;;;;;;5048223;28;20343;-64
2024/01/21 10:04:03;;;;;;;11.20;5.90;;;;;;;;;;5049287;28;20351;-64
2024/01/21 10:06:29;;;;;;;8.90;5.73;;;;;;;;;;5049353;28;20060;-64
2024/01/21 10:09:10;;;;;;;8.20;4.90;;;;;;;;;;5049295;28;20037;-64
2024/01/21 10:11:36;;;;;;;8.67;5.57;;;;;;;;;;5049256;28;20040;-64
2024/01/21 10:14:02;;;;;;;8.73;5.87;;;;;;;;;;5048481;28;20145;-64
2024/01/21 10:16:28;;;;;;;8.70;5.87;;;;;;;;;;5048620;28;20041;-64
2024/01/21 10:18:54;;;;;;;7.83;5.20;;;;;;;;;;5047075;28;20090;-64
2024/01/21 10:21:20;;;;;;;8.60;4.50;;;;;;;;;;5048454;28;20041;-64
2024/01/21 10:23:47;;;;;;;7.00;4.57;;;;;;;;;;5048566;28;20056;-64
2024/01/21 10:26:12;;;;;;;8.83;5.97;;;;;;;;;;5048421;28;20473;-64
2024/01/21 10:28:42;;;;;;;9.77;6.27;;;;;;;;;;5048614;28;20136;-64
2024/01/21 10:31:08;;;;;;;9.00;5.70;;;;;;;;;;5048728;28;20435;-64
2024/01/21 10:33:34;;;;;;;7.87;5.23;;;;;;;;;;5048719;28;20040;-64
2024/01/21 10:36:01;;;;;;;10.53;5.83;;;;;;;;;;5047995;28;20037;-64
2024/01/21 10:38:36;;;;;;;9.07;5.20;;;;;;;;;;5048080;28;20474;-64
2024/01/21 10:41:03;;;;;;;7.87;5.17;;;;;;;;;;5048143;28;20055;-64
2024/01/21 10:43:29;;;;;;;9.23;5.10;;;;;;;;;;5047166;28;20033;-63
2024/01/21 10:45:57;;;;;;;7.50;4.70;;;;;;;;;;5048143;28;20063;-64
2024/01/21 10:48:24;;;;;;;10.03;5.50;;;;;;;;;;5048075;28;20075;-64
2024/01/21 10:50:51;;;;;;;10.40;4.97;;;;;;;;;;5048469;28;20051;-64
2024/01/21 10:53:17;;;;;;;9.30;5.90;;;;;;;;;;5048098;28;20110;-64
2024/01/21 10:55:45;;;;;;;7.70;5.33;;;;;;;;;;5047920;28;20125;-64
2024/01/21 10:58:11;;;;;;;8.80;5.73;;;;;;;;;;5048296;28;20049;-64
2024/01/21 11:00:38;;;;;;;8.50;5.57;;;;;;;;;;5047570;28;20045;-64
2024/01/21 11:03:43;;;;;;;9.93;5.60;;;;;;;;;;5048511;28;20045;-64
2024/01/21 11:06:10;;;;;;;8.27;5.07;;;;;;;;;;5043836;28;20458;-64
2024/01/21 11:08:36;;;;;;;8.17;4.77;;;;;;;;;;5045850;28;20045;-64
2024/01/21 11:11:02;;;;;;;9.77;5.97;;;;;;;;;;5046475;28;20076;-64
2024/01/21 11:13:48;;;;;;;9.43;5.10;;;;;;;;;;5046697;28;20554;-65
2024/01/21 11:16:20;;;;;;;6.67;4.87;;;;;;;;;;5047411;28;20041;-65
2024/01/21 11:18:46;;;;;;;12.73;7.03;;;;;;;;;;5047985;28;20052;-65
2024/01/21 11:21:13;;;;;;;11.57;5.77;;;;;;;;;;5048337;28;20060;-65
2024/01/21 11:23:39;;;;;;;8.63;5.53;;;;;;;;;;5046945;28;20060;-64
2024/01/21 11:26:05;;;;;;;10.53;6.40;;;;;;;;;;5047245;28;20041;-64
2024/01/21 11:28:31;;;;;;;11.33;5.70;;;;;;;;;;5047711;28;20044;-65
2024/01/21 11:31:01;;;;;;;8.60;5.70;;;;;;;;;;5047597;28;20080;-64
2024/01/21 11:33:28;;;;;;;9.70;6.37;;;;;;;;;;5047922;28;20060;-64
2024/01/21 11:35:54;;;;;;;7.73;5.33;;;;;;;;;;5047450;28;20056;-64
2024/01/21 11:38:22;;;;;;;11.70;6.20;;;;;;;;;;5047227;28;20041;-64
2024/01/21 11:40:52;;;;;;;9.97;5.17;;;;;;;;;;5047592;28;20503;-65
2024/01/21 11:43:18;;;;;;;11.50;5.97;;;;;;;;;;5049460;28;20037;-64
2024/01/21 11:45:44;;;;;;;10.13;5.87;;;;;;;;;;5051758;28;20594;-64
2024/01/21 11:48:10;;;;;;;13.43;7.03;;;;;;;;;;5049275;28;20053;-64
2024/01/21 11:50:36;;;;;;;11.57;6.03;;;;;;;;;;5063013;28;20044;-64
2024/01/21 11:53:02;;;;;;;9.90;6.80;;;;;;;;;;5031768;28;20045;-64
2024/01/21 11:55:28;;;;;;;10.00;6.00;;;;;;;;;;5039522;28;20048;-64
2024/01/21 11:57:54;;;;;;;8.40;6.13;;;;;;;;;;5051202;28;20411;-64
2024/01/21 12:00:20;;;;;;;12.03;5.93;;;;;;;;;;5050682;28;20051;-65
2024/01/21 12:02:47;;;;;;;9.67;5.90;;;;;;;;;;5051047;28;20053;-64
2024/01/21 12:05:18;;;;;;;10.07;6.40;;;;;;;;;;5050883;28;20499;-64
2024/01/21 12:07:44;;;;;;;11.17;5.87;;;;;;;;;;5051713;28;20049;-64
2024/01/21 12:10:10;;;;;;;10.83;7.17;;;;;;;;;;5048615;28;20491;-64
2024/01/21 12:12:36;;;;;;;10.13;6.23;;;;;;;;;;5050077;28;20426;-65
2024/01/21 12:15:02;;;;;;;10.13;7.30;;;;;;;;;;5050340;28;20052;-65
2024/01/21 12:17:28;;;;;;;12.43;7.43;;;;;;;;;;5051173;28;20053;-64
2024/01/21 12:19:54;;;;;;;11.30;6.43;;;;;;;;;;5051241;28;20052;-65
2024/01/21 12:22:35;;;;;;;9.33;6.27;;;;;;;;;;5050740;28;20660;-65
2024/01/21 12:25:01;;;;;;;10.40;5.83;;;;;;;;;;5051138;28;20504;-64
2024/01/21 12:27:27;;;;;;;13.93;7.70;;;;;;;;;;5050874;28;20045;-64
2024/01/21 12:29:53;;;;;;;12.50;7.13;;;;;;;;;;5049375;28;20383;-65
2024/01/21 12:32:19;;;;;;;11.20;5.80;;;;;;;;;;5049157;28;20040;-65
2024/01/21 12:34:45;;;;;;;9.13;6.20;;;;;;;;;;5050753;28;20044;-64
2024/01/21 12:37:12;;;;;;;12.70;6.97;;;;;;;;;;5050971;28;20049;-64
2024/01/21 12:39:40;;;;;;;11.40;7.00;;;;;;;;;;5050174;28;20045;-64
2024/01/21 12:42:06;;;;;;;10.83;6.90;;;;;;;;;;5050387;28;20427;-64
2024/01/21 12:44:32;;;;;;;11.80;7.03;;;;;;;;;;5050925;28;20049;-65
2024/01/21 12:46:58;;;;;;;12.03;7.37;;;;;;;;;;5050551;28;20419;-64
2024/01/21 12:49:24;;;;;;;10.90;6.00;;;;;;;;;;5050339;28;20049;-64
2024/01/21 12:51:50;;;;;;;11.57;5.93;;;;;;;;;;5050800;28;20676;-64
2024/01/21 12:54:16;;;;;;;13.17;6.93;;;;;;;;;;5049373;28;20048;-65
2024/01/21 12:56:42;;;;;;;11.53;6.83;;;;;;;;;;5050234;28;20045;-64
2024/01/21 12:59:08;;;;;;;12.13;6.97;;;;;;;;;;5050323;28;20052;-64
2024/01/21 13:01:35;;;;;;;10.30;6.50;;;;;;;;;;5048999;28;20049;-64
2024/01/21 13:04:01;;;;;;;12.03;6.67;;;;;;;;;;5050875;28;20049;-64
2024/01/21 13:06:27;;;;;;;13.70;7.57;;;;;;;;;;5050686;28;20136;-64
2024/01/21 13:08:53;;;;;;;14.03;7.23;;;;;;;;;;5063823;28;20052;-64
2024/01/21 13:11:20;;;;;;;12.20;7.43;;;;;;;;;;5048957;28;20045;-64
2024/01/21 13:13:46;;;;;;;10.73;7.33;;;;;;;;;;5048521;28;20056;-64
2024/01/21 13:16:13;;;;;;;9.93;6.70;;;;;;;;;;5049710;28;20131;-64
2024/01/21 13:18:41;;;;;;;12.97;5.83;;;;;;;;;;5049514;28;20048;-64
2024/01/21 13:21:07;;;;;;;11.83;7.93;;;;;;;;;;5049876;28;20132;-64
2024/01/21 13:23:33;;;;;;;12.47;6.93;;;;;;;;;;5049455;28;20045;-64
2024/01/21 13:25:59;;;;;;;13.07;8.23;;;;;;;;;;5049863;28;20139;-64
2024/01/21 13:30:53;;;;;;;12.83;6.37;;;;;;;;;;5049628;28;20052;-64
2024/01/21 13:33:28;;;;;;;10.63;6.77;;;;;;;;;;5049946;28;20049;-64
2024/01/21 13:35:55;;;;;;;12.73;8.33;;;;;;;;;;5049309;28;20047;-65
2024/01/21 13:38:21;;;;;;;12.70;7.17;;;;;;;;;;5048566;28;20094;-64
2024/01/21 13:40:47;;;;;;;12.60;7.67;;;;;;;;;;5046368;28;20110;-64
2024/01/21 13:43:13;;;;;;;10.83;6.57;;;;;;;;;;5047932;28;20045;-64
2024/01/21 13:45:39;;;;;;;12.60;6.17;;;;;;;;;;5047580;28;20493;-64
2024/01/21 13:48:09;;;;;;;14.23;6.93;;;;;;;;;;5047734;28;20055;-64
2024/01/21 13:50:36;;;;;;;13.50;7.77;;;;;;;;;;5048861;28;20075;-64
2024/01/21 13:53:02;;;;;;;14.23;6.87;;;;;;;;;;5048879;28;20048;-64
2024/01/21 13:55:29;;;;;;;12.00;7.73;;;;;;;;;;5048889;28;20048;-64
2024/01/21 13:57:55;;;;;;;14.43;7.37;;;;;;;;;;5048277;28;20037;-65
2024/01/21 14:00:24;;;;;;;15.87;8.07;;;;;;;;;;5048290;28;20148;-64
2024/01/21 14:02:51;;;;;;;14.17;6.63;;;;;;;;;;5048016;28;20037;-65
2024/01/21 14:05:17;;;;;;;15.30;6.80;;;;;;;;;;5045048;28;20107;-65
2024/01/21 14:07:43;;;;;;;13.30;7.20;;;;;;;;;;5048913;28;20048;-65
2024/01/21 14:10:09;;;;;;;16.87;6.67;;;;;;;;;;5048815;28;20048;-65
2024/01/21 14:12:36;;;;;;;13.70;7.27;;;;;;;;;;5049058;28;20828;-65
2024/01/21 14:15:02;;;;;;;14.43;8.07;;;;;;;;;;5048766;28;20063;-65
2024/01/21 14:17:28;;;;;;;14.73;6.83;;;;;;;;;;5048377;28;20051;-64
2024/01/21 14:19:55;;;;;;;10.73;7.30;;;;;;;;;;5048993;28;20049;-65
2024/01/21 14:22:21;;;;;;;10.90;6.70;;;;;;;;;;5048962;28;20041;-65
2024/01/21 14:24:47;;;;;;;15.30;7.17;;;;;;;;;;5048673;28;20041;-65
2024/01/21 14:27:13;;;;;;;16.20;8.13;;;;;;;;;;5048252;28;20576;-65
2024/01/21 14:29:40;;;;;;;18.27;7.90;;;;;;;;;;5048470;28;20040;-65
2024/01/21 14:32:07;;;;;;;14.97;7.00;;;;;;;;;;5047232;28;20406;-65
2024/01/21 14:34:33;;;;;;;12.47;7.33;;;;;;;;;;5048516;28;20421;-65
2024/01/21 14:36:59;;;;;;;15.50;8.07;;;;;;;;;;5048428;28;20033;-65